Hesston, Kansas
Current Conditions -  °F | °C
As of 1:55 AM on Friday 24 Oct 2014 (Local Time) from KEWK Reporting Station
Clear Clear  
Wind Chill: 57°   Ceiling: Unl
Heat Index: 57°   Visibility: 5mi
Dew Point: 54°   Wind: 7mph
Humidity: 88%   Direction: 150°SSE
Pressure: 30.09"   Gusts: NA
Location:  38.14°N, 97.43°W
Report Text: KEWK 240655Z AUTO 15006KT 5SM CLR 14/12 A3009 RMK AO1
Loading
Personal Weather Stations






























Interactive Weather Map
Tropical Storm Tracking
New forecast layout! Learn more

10-Day Weather Forecast

Advertisements
Track Severe Weather on mobile